Time;durP1;ratioP1;P1;durP2;ratioP2;P2;SDS_P1;SDS_P2;PMS_P1;PMS_P2;Temp;Humidity;BMP_temperature;BMP_pressure;BME280_temperature;BME280_humidity;BME280_pressure;Samples;Min_cycle;Max_cycle;Signal;HPM_P1;HPM_P2
2022/09/09 00:02:29;;;;;;;4.62;2.55;;;24.40;75.10;;;;;;10739892;27;20049;-69
2022/09/09 00:09:10;;;;;;;3.67;2.00;;;24.30;74.90;;;;;;10680695;33;20025;-69
2022/09/09 00:15:19;;;;;;;7.20;2.28;;;24.30;74.80;;;;;;10679809;33;20076;-69
2022/09/09 00:21:36;;;;;;;4.95;2.22;;;24.30;74.90;;;;;;10680159;33;20067;-69
2022/09/09 00:27:46;;;;;;;2.70;1.85;;;24.30;75.20;;;;;;10667328;33;20044;-69
2022/09/09 00:33:50;;;;;;;3.72;1.77;;;24.30;75.00;;;;;;10679887;33;20056;-69
2022/09/09 00:39:59;;;;;;;6.47;2.55;;;24.20;75.20;;;;;;10666821;33;20391;-69
2022/09/09 00:46:41;;;;;;;4.97;2.95;;;24.10;75.40;;;;;;10679629;33;20029;-70
2022/09/09 00:53:19;;;;;;;5.60;2.83;;;24.10;75.40;;;;;;10679904;33;20432;-71
2022/09/09 00:59:36;;;;;;;6.03;3.12;;;24.00;75.50;;;;;;10662921;33;20025;-71
2022/09/09 01:06:11;;;;;;;3.40;2.30;;;24.00;75.60;;;;;;10679432;33;20022;-71
2022/09/09 01:12:24;;;;;;;6.87;2.22;;;24.00;75.70;;;;;;10654241;33;20057;-71
2022/09/09 01:18:34;;;;;;;6.37;2.12;;;24.00;75.70;;;;;;10604269;33;20037;-71
2022/09/09 01:24:48;;;;;;;4.28;1.80;;;24.00;75.70;;;;;;10603695;33;20426;-71
2022/09/09 01:30:50;;;;;;;3.05;1.70;;;24.00;75.70;;;;;;10604735;33;20038;-71
2022/09/09 01:37:06;;;;;;;4.95;2.40;;;23.90;76.10;;;;;;10604376;33;20026;-71
2022/09/09 01:43:09;;;;;;;3.97;1.70;;;23.90;76.40;;;;;;10604076;33;20026;-69
2022/09/09 01:49:12;;;;;;;4.57;1.58;;;23.80;76.70;;;;;;10659634;33;20330;-68
2022/09/09 01:55:15;;;;;;;2.05;1.48;;;23.70;77.00;;;;;;10677153;33;20041;-69
2022/09/09 02:01:28;;;;;;;1.55;1.12;;;23.70;77.00;;;;;;10665282;33;20025;-69
2022/09/09 02:07:39;;;;;;;2.28;1.60;;;23.70;76.90;;;;;;10677914;33;20026;-69
2022/09/09 02:14:13;;;;;;;2.72;1.83;;;23.70;76.90;;;;;;10677788;33;20057;-68
2022/09/09 02:20:41;;;;;;;2.37;1.75;;;23.70;76.90;;;;;;10682711;33;20060;-69
2022/09/09 02:26:47;;;;;;;1.87;1.62;;;23.70;77.00;;;;;;10683612;33;20076;-69
2022/09/09 02:32:56;;;;;;;2.37;1.73;;;23.60;77.30;;;;;;10683214;33;20025;-69
2022/09/09 02:39:01;;;;;;;2.20;1.60;;;23.60;77.40;;;;;;10683026;33;20029;-69
2022/09/09 02:45:07;;;;;;;4.90;1.75;;;23.60;77.40;;;;;;10679059;33;20406;-69
2022/09/09 02:51:45;;;;;;;2.10;1.48;;;23.60;77.40;;;;;;10682893;33;20028;-68
2022/09/09 02:57:50;;;;;;;3.47;2.25;;;23.60;77.60;;;;;;10678474;33;20038;-69
2022/09/09 03:03:54;;;;;;;6.72;2.30;;;23.50;77.80;;;;;;10682150;33;20192;-69
2022/09/09 03:09:58;;;;;;;4.20;1.98;;;23.50;77.70;;;;;;10682258;33;20052;-69
2022/09/09 03:16:00;;;;;;;1.95;1.00;;;23.50;77.40;;;;;;10682065;33;20395;-69
2022/09/09 03:22:04;;;;;;;3.50;2.05;;;23.60;77.40;;;;;;10682022;33;20064;-69
2022/09/09 03:28:06;;;;;;;4.65;2.08;;;23.50;77.50;;;;;;10681645;33;20052;-69
2022/09/09 03:34:09;;;;;;;1.58;1.02;;;23.50;77.70;;;;;;10668790;33;20052;-69
2022/09/09 03:40:12;;;;;;;2.22;1.35;;;23.40;77.80;;;;;;10681288;33;20071;-69
2022/09/09 03:46:14;;;;;;;4.37;1.60;;;23.40;77.80;;;;;;10681256;33;20055;-69
2022/09/09 03:52:16;;;;;;;2.80;1.27;;;23.30;77.90;;;;;;10681193;33;20022;-69
2022/09/09 03:58:18;;;;;;;1.52;1.40;;;23.30;78.00;;;;;;10680098;33;20026;-69
2022/09/09 04:04:22;;;;;;;5.05;1.45;;;23.30;77.90;;;;;;10680748;33;20033;-69
2022/09/09 04:10:24;;;;;;;2.35;1.60;;;23.30;78.00;;;;;;10680516;33;20065;-69
2022/09/09 04:16:29;;;;;;;2.28;1.55;;;23.30;77.90;;;;;;10679568;33;20029;-69
2022/09/09 04:22:31;;;;;;;3.50;1.65;;;23.30;77.90;;;;;;10680266;33;20030;-69
2022/09/09 04:28:36;;;;;;;2.50;1.60;;;23.30;78.00;;;;;;10667385;33;20017;-69
2022/09/09 04:34:38;;;;;;;3.30;1.98;;;23.30;77.90;;;;;;10679937;33;20029;-69
2022/09/09 04:40:43;;;;;;;2.33;1.75;;;23.30;77.90;;;;;;10680897;33;20022;-69
2022/09/09 04:46:45;;;;;;;9.55;2.67;;;23.30;78.00;;;;;;10679638;33;20029;-69
2022/09/09 04:52:48;;;;;;;4.28;1.50;;;23.30;78.10;;;;;;10679343;33;20025;-70
2022/09/09 04:58:51;;;;;;;2.78;1.77;;;23.20;78.10;;;;;;10679131;33;20033;-69
2022/09/09 05:04:55;;;;;;;1.90;1.30;;;23.20;78.20;;;;;;10679170;33;20424;-69
2022/09/09 05:10:59;;;;;;;2.67;1.70;;;23.10;78.40;;;;;;10678809;33;20030;-70
2022/09/09 05:17:01;;;;;;;2.60;1.62;;;23.10;78.50;;;;;;10678575;33;20030;-69
2022/09/09 05:23:04;;;;;;;3.20;2.10;;;23.10;78.50;;;;;;10678679;33;20036;-69
2022/09/09 05:29:08;;;;;;;3.28;1.67;;;23.10;78.50;;;;;;10698263;32;20024;-69
2022/09/09 05:35:10;;;;;;;3.78;2.17;;;23.10;78.50;;;;;;10866140;32;20028;-69
2022/09/09 05:41:40;;;;;;;3.30;2.62;;;23.30;78.40;;;;;;10862612;32;20078;-73
2022/09/09 05:47:43;;;;;;;4.37;1.62;;;23.30;78.10;;;;;;10867686;32;20569;-73
2022/09/09 05:54:04;;;;;;;6.20;2.30;;;23.30;78.30;;;;;;10869689;32;20443;-69
2022/09/09 06:00:07;;;;;;;4.45;2.53;;;23.20;78.40;;;;;;10873229;32;20024;-69
2022/09/09 06:06:20;;;;;;;6.80;1.90;;;23.20;78.50;;;;;;10872996;32;20043;-69
2022/09/09 06:12:23;;;;;;;2.22;1.67;;;23.30;78.30;;;;;;10872632;32;20012;-69
2022/09/09 06:18:25;;;;;;;6.40;2.08;;;23.30;78.10;;;;;;10859032;32;20031;-69
2022/09/09 06:24:30;;;;;;;3.50;2.00;;;23.40;78.10;;;;;;10872223;32;20442;-69
2022/09/09 06:30:32;;;;;;;6.18;2.97;;;23.50;78.10;;;;;;10784390;32;20052;-69
2022/09/09 06:36:37;;;;;;;5.75;2.45;;;23.60;77.90;;;;;;10688628;32;20027;-69
2022/09/09 06:42:40;;;;;;;2.97;1.95;;;23.60;77.80;;;;;;10735664;32;20428;-70
2022/09/09 06:48:59;;;;;;;5.62;2.40;;;23.70;77.70;;;;;;10682070;33;20057;-68
2022/09/09 06:55:02;;;;;;;3.03;1.75;;;23.70;77.60;;;;;;10682925;32;20029;-72
2022/09/09 07:01:06;;;;;;;3.70;2.42;;;23.70;77.70;;;;;;10681789;33;20022;-72
2022/09/09 07:07:12;;;;;;;4.53;1.75;;;23.70;77.60;;;;;;10870810;32;20036;-72
2022/09/09 07:13:15;;;;;;;4.43;2.17;;;23.70;77.60;;;;;;10870840;32;20066;-73
2022/09/09 07:19:17;;;;;;;3.12;2.17;;;23.70;77.40;;;;;;10682185;33;20033;-72
2022/09/09 07:25:20;;;;;;;5.80;2.30;;;23.90;77.20;;;;;;10741834;32;20052;-73
2022/09/09 07:31:31;;;;;;;7.53;2.47;;;24.10;76.80;;;;;;10669570;33;20022;-72
2022/09/09 07:37:37;;;;;;;6.12;2.95;;;24.10;76.80;;;;;;10681327;33;20025;-72
2022/09/09 07:43:41;;;;;;;8.60;2.78;;;24.20;77.10;;;;;;10682552;33;20417;-72
2022/09/09 07:49:46;;;;;;;3.08;2.47;;;24.30;76.80;;;;;;10681306;33;20378;-72
2022/09/09 07:55:48;;;;;;;4.07;2.22;;;24.20;76.90;;;;;;10669244;33;20021;-72
2022/09/09 08:01:55;;;;;;;8.50;3.17;;;24.30;77.00;;;;;;10325414;27;11969708;-73
2022/09/09 08:07:57;;;;;;;7.62;2.97;;;24.40;76.90;;;;;;10677788;33;20034;-74
2022/09/09 08:13:59;;;;;;;10.75;4.28;;;24.60;76.70;;;;;;10675979;33;20040;-73
2022/09/09 08:20:06;;;;;;;9.52;3.17;;;24.70;76.50;;;;;;10677396;33;20029;-73
2022/09/09 08:26:14;;;;;;;5.35;2.05;;;24.90;76.10;;;;;;10678118;33;20017;-73
2022/09/09 08:32:16;;;;;;;6.12;2.22;;;25.00;75.70;;;;;;10680164;33;20056;-73
2022/09/09 08:38:35;;;;;;;4.07;2.05;;;25.10;75.40;;;;;;10679903;33;20398;-71
2022/09/09 08:44:38;;;;;;;;;;;25.30;75.10;;;;;;10680427;33;20013;-72
2022/09/09 08:58:19;;;;;;;5.03;1.83;;;25.60;74.40;;;;;;10717457;33;20065;-71
2022/09/09 09:04:36;;;;;;;6.05;2.40;;;25.80;74.00;;;;;;10717150;33;20024;-70
2022/09/09 09:10:47;;;;;;;2.85;1.52;;;25.90;73.60;;;;;;10717428;33;20029;-72
2022/09/09 09:16:56;;;;;;;6.30;2.15;;;25.90;73.60;;;;;;10716194;33;20047;-72
2022/09/09 09:23:04;;;;;;;6.03;1.95;;;25.90;73.60;;;;;;10750664;33;20033;-72
2022/09/09 09:29:18;;;;;;;4.20;2.53;;;25.80;73.80;;;;;;10792306;33;20020;-72
2022/09/09 09:35:21;;;;;;;3.75;1.48;;;25.60;74.10;;;;;;10685073;33;20120;-72
2022/09/09 09:41:42;;;;;;;2.97;1.73;;;25.40;74.40;;;;;;10685030;32;20402;-72
2022/09/09 09:47:45;;;;;;;2.17;1.37;;;25.30;74.70;;;;;;10685109;33;20057;-72
2022/09/09 09:53:52;;;;;;;1.62;1.42;;;25.20;74.80;;;;;;10684804;33;20033;-73
2022/09/09 10:00:22;;;;;;;2.78;1.27;;;25.20;74.80;;;;;;10810248;32;20075;-72
2022/09/09 10:06:39;;;;;;;2.58;1.33;;;25.40;74.50;;;;;;10866782;32;20476;-72
2022/09/09 10:13:11;;;;;;;3.65;1.90;;;25.90;73.60;;;;;;10873007;32;20307;-73
2022/09/09 10:19:19;;;;;;;5.35;1.92;;;26.30;72.80;;;;;;10872196;32;20016;-72
2022/09/09 10:25:45;;;;;;;6.25;2.30;;;26.50;71.80;;;;;;10870364;32;20062;-73
2022/09/09 10:32:07;;;;;;;3.40;1.77;;;26.50;71.60;;;;;;10683623;33;20017;-72
2022/09/09 10:38:18;;;;;;;2.75;1.90;;;26.60;71.30;;;;;;10871112;32;20027;-71
2022/09/09 10:44:24;;;;;;;2.42;1.37;;;26.80;71.10;;;;;;10682365;33;20017;-72
2022/09/09 10:50:53;;;;;;;2.58;1.20;;;27.10;70.60;;;;;;10870929;32;20317;-73
2022/09/09 10:57:23;;;;;;;2.97;1.33;;;27.00;70.10;;;;;;10868999;32;20065;-72
2022/09/09 11:03:29;;;;;;;2.97;0.97;;;26.90;69.80;;;;;;10850981;32;20081;-72
2022/09/09 11:09:45;;;;;;;1.98;0.93;;;27.10;69.60;;;;;;10870635;32;20147;-73
2022/09/09 11:15:55;;;;;;;1.17;0.80;;;27.20;69.30;;;;;;10870842;32;20050;-72
2022/09/09 11:21:59;;;;;;;3.85;0.90;;;26.90;69.30;;;;;;10870342;32;20039;-72
2022/09/09 11:28:22;;;;;;;2.42;1.50;;;27.00;69.50;;;;;;10870358;32;20024;-72
2022/09/09 11:34:52;;;;;;;2.83;1.45;;;27.30;69.00;;;;;;10869963;32;20027;-72
2022/09/09 11:41:06;;;;;;;3.12;1.30;;;27.30;68.50;;;;;;10682136;32;20021;-72
2022/09/09 11:47:31;;;;;;;2.58;1.40;;;27.20;68.50;;;;;;10852327;32;20078;-72
2022/09/09 11:53:36;;;;;;;2.15;1.17;;;27.00;68.70;;;;;;10863412;32;20024;-73
2022/09/09 11:59:38;;;;;;;3.80;1.75;;;26.80;69.00;;;;;;10677653;33;20033;-73
2022/09/09 12:05:45;;;;;;;1.58;1.00;;;26.80;69.40;;;;;;10868913;32;20439;-73
2022/09/09 12:12:33;;;;;;;4.97;1.80;;;26.70;69.10;;;;;;10868480;32;20059;-73
2022/09/09 12:18:46;;;;;;;3.42;1.98;;;26.70;69.30;;;;;;10753846;33;20090;-70
2022/09/09 12:25:11;;;;;;;4.45;2.12;;;26.60;69.70;;;;;;10753586;33;20370;-69
2022/09/09 12:31:31;;;;;;;3.25;1.75;;;26.60;70.00;;;;;;10753046;33;20059;-69
2022/09/09 12:38:09;;;;;;;4.75;1.75;;;26.40;70.10;;;;;;10753225;33;20067;-70
2022/09/09 12:51:52;;;;;;;2.85;1.20;;;26.30;70.20;;;;;;10717942;33;20025;-69
2022/09/09 12:57:55;;;;;;;5.28;1.98;;;26.30;70.00;;;;;;10716504;33;20045;-69
2022/09/09 13:03:57;;;;;;;14.25;2.15;;;26.30;70.00;;;;;;10716696;33;20047;-68
2022/09/09 13:09:59;;;;;;;2.90;1.23;;;26.30;70.20;;;;;;10716556;33;20029;-68
2022/09/09 13:16:04;;;;;;;2.85;1.67;;;26.30;70.20;;;;;;10715823;33;20104;-69
2022/09/09 13:22:32;;;;;;;1.95;1.58;;;26.20;70.00;;;;;;10729752;32;20023;-67
2022/09/09 13:28:37;;;;;;;7.18;2.80;;;25.60;70.20;;;;;;10862696;32;20016;-68
2022/09/09 13:34:49;;;;;;;8.88;3.22;;;24.80;71.30;;;;;;10866161;32;20059;-71
2022/09/09 13:41:06;;;;;;;16.45;2.20;;;24.10;72.50;;;;;;10861683;32;20015;-70
2022/09/09 13:47:13;;;;;;;1.48;1.20;;;23.70;75.20;;;;;;10866271;32;20043;-72
2022/09/09 13:53:16;;;;;;;1.08;0.98;;;23.50;75.70;;;;;;10678186;33;20076;-70
2022/09/09 13:59:20;;;;;;;1.98;1.23;;;23.40;76.00;;;;;;10865280;32;20028;-69
2022/09/09 14:05:23;;;;;;;2.25;1.00;;;23.70;75.70;;;;;;10866109;32;20038;-69
2022/09/09 14:11:25;;;;;;;1.37;0.80;;;24.00;75.40;;;;;;10868011;32;20019;-69
2022/09/09 14:17:29;;;;;;;1.20;0.80;;;24.20;75.20;;;;;;10872815;32;20012;-69
2022/09/09 14:23:32;;;;;;;1.17;0.85;;;24.30;75.10;;;;;;10871958;32;20023;-70
2022/09/09 14:29:34;;;;;;;0.68;0.30;;;24.40;75.10;;;;;;10861514;32;20019;-70
2022/09/09 14:35:47;;;;;;;2.62;1.17;;;24.50;75.00;;;;;;10679238;33;20025;-70
2022/09/09 14:41:49;;;;;;;2.10;1.12;;;24.80;75.00;;;;;;10683147;32;20390;-70
2022/09/09 14:47:51;;;;;;;3.47;1.12;;;24.90;74.90;;;;;;10683079;33;20047;-69
2022/09/09 14:53:56;;;;;;;2.45;1.30;;;25.10;74.70;;;;;;10682694;33;20010;-70
2022/09/09 14:59:59;;;;;;;1.70;1.17;;;25.30;74.70;;;;;;10855771;32;20032;-69
2022/09/09 15:06:14;;;;;;;2.83;1.30;;;25.40;74.70;;;;;;10671947;33;20022;-69
2022/09/09 15:12:20;;;;;;;1.98;1.48;;;25.40;74.80;;;;;;10647426;33;20391;-69
2022/09/09 15:18:26;;;;;;;2.03;1.12;;;25.60;74.80;;;;;;10633696;33;20064;-69
2022/09/09 15:24:28;;;;;;;2.90;1.92;;;25.80;74.50;;;;;;10645810;33;20034;-69
2022/09/09 15:30:31;;;;;;;3.53;1.67;;;26.00;74.60;;;;;;10637133;33;20326;-71
2022/09/09 15:36:38;;;;;;;4.12;1.98;;;26.20;74.40;;;;;;10645667;33;20033;-71
2022/09/09 15:42:40;;;;;;;3.70;1.40;;;26.30;74.60;;;;;;10645628;33;20026;-71
2022/09/09 15:49:04;;;;;;;1.12;0.90;;;26.30;74.60;;;;;;10673666;33;20111;-71
2022/09/09 15:55:08;;;;;;;1.58;1.25;;;26.30;75.00;;;;;;10681145;33;20069;-71
2022/09/09 16:01:18;;;;;;;2.85;1.02;;;26.30;75.30;;;;;;10684294;27;20076;-71
2022/09/09 16:07:20;;;;;;;2.47;1.33;;;26.40;75.10;;;;;;10680448;33;20018;-71
2022/09/09 16:13:22;;;;;;;3.15;1.10;;;26.40;74.90;;;;;;10786340;32;20315;-71
2022/09/09 16:19:38;;;;;;;2.15;1.23;;;26.50;74.50;;;;;;10667764;33;20047;-71
2022/09/09 16:25:41;;;;;;;2.08;1.37;;;26.60;73.80;;;;;;10667302;33;20017;-71
2022/09/09 16:31:51;;;;;;;2.67;1.30;;;27.00;72.80;;;;;;10676128;33;20382;-70
2022/09/09 16:37:53;;;;;;;2.17;1.17;;;28.00;70.40;;;;;;10679201;33;20041;-71
2022/09/09 16:43:58;;;;;;;2.05;1.05;;;29.30;67.50;;;;;;10679914;33;20083;-68
2022/09/09 16:50:00;;;;;;;2.50;1.23;;;29.80;66.20;;;;;;10680026;32;20398;-68
2022/09/09 16:56:08;;;;;;;1.90;1.10;;;28.60;68.80;;;;;;10680858;33;20021;-69
2022/09/09 17:02:10;;;;;;;1.60;1.00;;;27.50;71.00;;;;;;10679277;33;20025;-71
2022/09/09 17:08:12;;;;;;;1.58;1.15;;;26.80;72.20;;;;;;10679206;33;20017;-71
2022/09/09 17:14:16;;;;;;;2.12;1.40;;;26.40;72.80;;;;;;10678940;33;20026;-71
2022/09/09 17:20:18;;;;;;;1.52;1.05;;;26.30;72.90;;;;;;10675090;33;20056;-71
2022/09/09 17:26:26;;;;;;;2.53;1.50;;;26.10;73.10;;;;;;10678787;33;20025;-71
2022/09/09 17:32:28;;;;;;;5.87;1.63;;;25.80;73.40;;;;;;10665851;33;20029;-71
2022/09/09 17:38:53;;;;;;;1.98;1.30;;;25.60;73.60;;;;;;10678590;33;20119;-71
2022/09/09 17:44:55;;;;;;;3.62;1.80;;;25.40;73.80;;;;;;10679348;33;20385;-71
2022/09/09 17:50:59;;;;;;;1.75;1.05;;;25.30;74.00;;;;;;10684472;32;20021;-71
2022/09/09 17:57:14;;;;;;;1.98;1.20;;;25.10;74.10;;;;;;10681005;33;20056;-71
2022/09/09 18:03:17;;;;;;;1.02;0.75;;;25.00;74.10;;;;;;10681822;33;20052;-71
2022/09/09 18:09:23;;;;;;;2.85;1.62;;;24.80;74.30;;;;;;10683674;33;20056;-67
2022/09/09 18:15:25;;;;;;;2.30;1.42;;;24.70;74.40;;;;;;10683253;33;20033;-68
2022/09/09 18:21:31;;;;;;;2.67;1.52;;;24.60;74.60;;;;;;10683217;33;20124;-68
2022/09/09 18:27:34;;;;;;;4.85;2.03;;;24.50;74.70;;;;;;10670290;33;20021;-67
2022/09/09 18:33:37;;;;;;;2.75;1.55;;;24.40;74.80;;;;;;10682886;33;20079;-68
2022/09/09 18:39:39;;;;;;;4.12;2.17;;;24.30;74.70;;;;;;10682863;33;20048;-68
2022/09/09 18:45:41;;;;;;;3.37;1.90;;;24.30;74.90;;;;;;10682843;33;20041;-68
2022/09/09 18:51:45;;;;;;;2.80;1.87;;;24.20;74.90;;;;;;10682697;33;20025;-68
2022/09/09 18:57:47;;;;;;;3.95;2.17;;;24.20;74.80;;;;;;10669243;33;20025;-70
2022/09/09 19:03:49;;;;;;;1.80;1.40;;;24.00;75.00;;;;;;10682891;33;20017;-70
2022/09/09 19:09:52;;;;;;;4.00;2.08;;;23.90;75.20;;;;;;10682192;33;20037;-71
2022/09/09 19:16:08;;;;;;;3.62;2.28;;;23.80;75.30;;;;;;10681981;33;20021;-71
2022/09/09 19:22:18;;;;;;;5.30;2.60;;;23.70;75.40;;;;;;10681428;33;20033;-71
2022/09/09 19:28:20;;;;;;;3.42;2.15;;;23.70;75.60;;;;;;10681459;33;20416;-71
2022/09/09 19:34:25;;;;;;;10.35;2.20;;;23.60;75.60;;;;;;10683947;33;20041;-70
2022/09/09 19:40:27;;;;;;;4.37;2.97;;;23.50;75.60;;;;;;10681654;33;20020;-71
2022/09/09 19:46:58;;;;;;;3.30;2.47;;;23.50;75.60;;;;;;10681288;33;20428;-71
2022/09/09 19:53:57;;;;;;;2.55;1.75;;;23.60;75.50;;;;;;10788985;33;20040;-71
2022/09/09 20:00:14;;;;;;;4.68;1.90;;;23.60;75.50;;;;;;10761704;33;20036;-71
2022/09/09 20:06:20;;;;;;;4.03;1.52;;;23.60;75.50;;;;;;10754113;33;20051;-71
2022/09/09 20:12:23;;;;;;;2.47;1.80;;;23.70;75.60;;;;;;10753570;33;20052;-71
2022/09/09 20:25:09;;;;;;;4.12;2.05;;;23.70;75.90;;;;;;10754491;33;20029;-71
2022/09/09 20:31:14;;;;;;;2.30;1.65;;;23.70;75.90;;;;;;10749621;33;20131;-71
2022/09/09 20:37:16;;;;;;;4.65;1.45;;;23.60;76.10;;;;;;10751452;33;20067;-71
2022/09/09 20:43:19;;;;;;;2.80;1.95;;;23.60;76.50;;;;;;10753293;33;20055;-71
2022/09/09 20:49:23;;;;;;;1.95;1.50;;;23.40;76.80;;;;;;10753060;33;20028;-71
2022/09/09 20:55:25;;;;;;;0.82;0.82;;;23.30;76.80;;;;;;10753038;33;20051;-71
2022/09/09 21:01:27;;;;;;;2.08;1.33;;;23.30;76.90;;;;;;10796749;32;20062;-71
2022/09/09 21:07:29;;;;;;;1.50;1.37;;;23.20;77.00;;;;;;10677274;33;20029;-71
2022/09/09 21:13:33;;;;;;;1.73;1.12;;;23.20;77.00;;;;;;10679275;33;20350;-71
2022/09/09 21:19:36;;;;;;;1.70;1.42;;;23.30;76.80;;;;;;10674482;33;20029;-71
2022/09/09 21:25:39;;;;;;;1.55;1.00;;;23.20;76.80;;;;;;10678954;33;20341;-71
2022/09/09 21:31:42;;;;;;;2.40;1.62;;;23.10;76.90;;;;;;10666140;33;20052;-71
2022/09/09 21:37:44;;;;;;;2.33;1.55;;;23.00;77.00;;;;;;10669248;33;20038;-71
2022/09/09 21:43:52;;;;;;;1.27;1.17;;;23.00;76.90;;;;;;10642738;33;20057;-71
2022/09/09 21:49:54;;;;;;;3.17;1.77;;;22.90;76.90;;;;;;10642724;33;20366;-71
2022/09/09 21:56:01;;;;;;;2.22;1.62;;;22.80;77.10;;;;;;10642320;33;20060;-71
2022/09/09 22:02:03;;;;;;;3.47;2.08;;;22.80;77.20;;;;;;10642422;33;20429;-71
2022/09/09 22:08:06;;;;;;;2.05;1.73;;;22.80;77.10;;;;;;10642001;33;20053;-71
2022/09/09 22:14:09;;;;;;;2.40;2.00;;;22.80;77.00;;;;;;10642127;33;20022;-71
2022/09/09 22:20:11;;;;;;;4.78;2.03;;;22.80;77.00;;;;;;10641826;33;20060;-71
2022/09/09 22:26:14;;;;;;;2.80;1.90;;;22.80;77.00;;;;;;10641622;33;20387;-71
2022/09/09 22:32:16;;;;;;;2.92;2.00;;;22.80;77.00;;;;;;10643300;33;20017;-71
2022/09/09 22:38:19;;;;;;;2.20;1.58;;;22.70;77.10;;;;;;10647657;33;20021;-71
2022/09/09 22:44:25;;;;;;;2.62;1.77;;;22.60;77.20;;;;;;10647339;33;20398;-71
2022/09/09 22:50:28;;;;;;;3.45;1.92;;;22.70;77.30;;;;;;10647203;33;20018;-71
2022/09/09 22:56:30;;;;;;;3.75;1.70;;;22.80;77.20;;;;;;10634315;33;20026;-71
2022/09/09 23:02:33;;;;;;;2.22;1.70;;;22.70;77.10;;;;;;10646932;33;20055;-71
2022/09/09 23:08:37;;;;;;;1.90;1.45;;;22.70;77.20;;;;;;10646935;33;20052;-71
2022/09/09 23:14:39;;;;;;;1.65;1.25;;;22.70;77.40;;;;;;10647424;32;20354;-71
2022/09/09 23:20:42;;;;;;;1.55;1.37;;;22.70;77.40;;;;;;10633687;33;20052;-71
2022/09/09 23:26:45;;;;;;;1.30;1.10;;;22.50;77.40;;;;;;10646180;33;20057;-71
2022/09/09 23:32:50;;;;;;;4.72;1.75;;;22.40;77.40;;;;;;10646044;33;20075;-71
2022/09/09 23:38:54;;;;;;;1.67;1.33;;;22.30;77.60;;;;;;10675256;32;20083;-71
2022/09/09 23:45:19;;;;;;;2.67;1.50;;;22.30;77.60;;;;;;10692447;32;20087;-71
2022/09/09 23:51:24;;;;;;;2.90;1.60;;;22.40;77.50;;;;;;10668722;33;20035;-71
2022/09/09 23:57:26;;;;;;;1.23;1.12;;;22.40;77.70;;;;;;10681013;33;20342;-71
